createdAt,value
2022-07-30T00:00:39.065Z,17.70
2022-07-30T00:03:07.240Z,17.80
2022-07-30T00:05:35.390Z,17.70
2022-07-30T00:08:03.548Z,17.70
2022-07-30T00:10:31.869Z,17.70
2022-07-30T00:12:59.985Z,17.60
2022-07-30T00:15:29.599Z,17.60
2022-07-30T00:17:57.825Z,17.50
2022-07-30T00:20:28.152Z,17.40
2022-07-30T00:22:56.553Z,17.30
2022-07-30T00:25:25.073Z,17.20
2022-07-30T00:27:53.356Z,17.20
2022-07-30T00:30:21.539Z,17.10
2022-07-30T00:32:51.169Z,17.00
2022-07-30T00:35:19.377Z,17.00
2022-07-30T00:37:47.591Z,16.90
2022-07-30T00:40:15.967Z,16.90
2022-07-30T00:42:46.254Z,16.90
2022-07-30T00:45:16.204Z,16.80
2022-07-30T00:47:44.736Z,16.80
2022-07-30T00:50:15.079Z,16.80
2022-07-30T00:52:43.717Z,16.80
2022-07-30T00:55:14.762Z,16.80
2022-07-30T00:57:43.801Z,16.80
2022-07-30T01:00:15.384Z,16.70
2022-07-30T01:02:43.852Z,16.70
2022-07-30T01:05:12.518Z,16.80
2022-07-30T01:07:42.902Z,16.70
2022-07-30T01:10:13.282Z,16.60
2022-07-30T01:12:41.608Z,16.50
2022-07-30T01:15:11.671Z,16.60
2022-07-30T01:17:40.443Z,16.60
2022-07-30T01:20:13.591Z,16.70
2022-07-30T01:22:51.584Z,16.60
2022-07-30T01:25:31.294Z,16.60
2022-07-30T01:28:06.127Z,16.60
2022-07-30T01:30:42.365Z,16.60
2022-07-30T01:33:13.467Z,16.60
2022-07-30T01:35:42.941Z,16.70
2022-07-30T01:38:13.837Z,16.70
2022-07-30T01:40:44.179Z,16.60
2022-07-30T01:43:14.522Z,16.60
2022-07-30T01:45:44.528Z,16.60
2022-07-30T01:48:16.705Z,16.50
2022-07-30T01:50:47.964Z,16.50
2022-07-30T01:53:18.480Z,16.50
2022-07-30T01:55:47.606Z,16.50
2022-07-30T01:58:21.390Z,16.50
2022-07-30T02:00:58.292Z,16.50
2022-07-30T02:03:28.638Z,16.50
2022-07-30T02:06:01.653Z,16.60
2022-07-30T02:08:40.073Z,16.50
2022-07-30T02:11:11.082Z,16.60
2022-07-30T02:13:47.285Z,16.50
2022-07-30T02:16:19.679Z,16.50
2022-07-30T02:18:56.856Z,16.50
2022-07-30T02:21:34.622Z,16.50
2022-07-30T02:24:09.143Z,16.50
2022-07-30T02:26:39.292Z,16.50
2022-07-30T02:29:11.538Z,16.50
2022-07-30T02:31:42.867Z,16.40
2022-07-30T02:34:14.054Z,16.40
2022-07-30T02:36:44.271Z,16.30
2022-07-30T02:39:14.161Z,16.30
2022-07-30T02:41:49.544Z,16.30
2022-07-30T02:44:22.079Z,16.40
2022-07-30T02:46:52.439Z,16.40
2022-07-30T02:49:41.118Z,16.30
2022-07-30T02:52:13.579Z,16.10
2022-07-30T02:54:43.413Z,16.00
2022-07-30T02:57:12.722Z,16.00
2022-07-30T02:59:44.933Z,15.90
2022-07-30T03:02:15.023Z,15.90
2022-07-30T03:04:44.377Z,15.80
2022-07-30T03:07:17.924Z,15.80
2022-07-30T03:09:51.276Z,15.80
2022-07-30T03:12:21.031Z,15.80
2022-07-30T03:14:51.724Z,15.80
2022-07-30T03:17:20.809Z,15.70
2022-07-30T03:19:51.013Z,15.60
2022-07-30T03:22:20.433Z,15.60
2022-07-30T03:24:50.338Z,15.60
2022-07-30T03:27:19.395Z,15.60
2022-07-30T03:29:50.549Z,15.60
2022-07-30T03:32:19.347Z,15.60
2022-07-30T03:34:55.104Z,15.50
2022-07-30T03:37:26.565Z,15.40
2022-07-30T03:39:58.060Z,15.30
2022-07-30T03:42:29.127Z,15.30
2022-07-30T03:44:59.141Z,15.30
2022-07-30T03:47:28.067Z,15.20
2022-07-30T03:49:56.446Z,15.20
2022-07-30T03:52:25.930Z,15.10
2022-07-30T03:54:55.703Z,15.10
2022-07-30T03:57:46.712Z,15.00
2022-07-30T04:00:17.205Z,15.00
2022-07-30T04:02:50.887Z,15.00
2022-07-30T04:05:41.623Z,15.10
2022-07-30T04:08:12.633Z,15.10
2022-07-30T04:10:42.865Z,15.20
2022-07-30T04:13:42.651Z,15.30
2022-07-30T04:16:39.337Z,15.30
2022-07-30T04:19:15.407Z,15.40
2022-07-30T04:21:43.867Z,15.40
2022-07-30T04:24:13.736Z,15.50
2022-07-30T04:26:42.143Z,15.50
2022-07-30T04:29:13.426Z,15.40
2022-07-30T04:31:44.058Z,15.50
2022-07-30T04:34:30.797Z,15.70
2022-07-30T04:36:59.346Z,15.90
2022-07-30T04:39:30.147Z,16.20
2022-07-30T04:41:58.258Z,16.30
2022-07-30T04:44:39.301Z,16.60
2022-07-30T04:47:29.067Z,17.00
2022-07-30T04:50:23.716Z,17.10
2022-07-30T04:52:54.667Z,17.60
2022-07-30T04:55:29.807Z,18.00
2022-07-30T04:57:59.031Z,18.50
2022-07-30T05:00:32.502Z,18.70
2022-07-30T05:03:05.768Z,19.20
2022-07-30T05:05:34.916Z,19.70
2022-07-30T05:08:04.414Z,20.20
2022-07-30T05:10:33.532Z,20.70
2022-07-30T05:13:01.917Z,21.00
2022-07-30T05:15:36.148Z,21.30
2022-07-30T05:18:09.610Z,21.60
2022-07-30T05:20:41.337Z,22.00
2022-07-30T05:23:15.712Z,22.40
2022-07-30T05:25:49.866Z,22.90
2022-07-30T05:28:31.747Z,23.30
2022-07-30T05:31:08.814Z,23.80
2022-07-30T05:33:42.472Z,24.30
2022-07-30T05:36:13.866Z,24.80
2022-07-30T05:38:42.221Z,25.30
2022-07-30T05:41:32.685Z,25.60
2022-07-30T05:44:09.479Z,25.70
2022-07-30T05:46:39.945Z,25.90
2022-07-30T05:49:09.663Z,26.00
2022-07-30T05:51:37.881Z,26.30
2022-07-30T05:54:07.506Z,26.50
2022-07-30T05:56:54.046Z,26.70
2022-07-30T05:59:33.709Z,26.90
2022-07-30T06:02:24.697Z,27.40
2022-07-30T06:05:20.761Z,27.70
2022-07-30T06:07:49.042Z,28.10
2022-07-30T06:10:19.693Z,28.40
2022-07-30T06:12:48.646Z,28.70
2022-07-30T06:15:25.796Z,29.20
2022-07-30T06:18:01.397Z,29.60
2022-07-30T06:20:51.877Z,29.80
2022-07-30T06:23:38.814Z,30.10
2022-07-30T06:26:29.791Z,30.00
2022-07-30T06:28:57.984Z,30.50
2022-07-30T06:31:31.372Z,30.80
2022-07-30T06:33:59.770Z,31.20
2022-07-30T06:36:33.547Z,31.70
2022-07-30T06:39:05.865Z,32.00
2022-07-30T06:42:02.852Z,31.30
2022-07-30T06:44:51.277Z,30.80
2022-07-30T06:47:29.127Z,31.00
2022-07-30T06:49:58.943Z,31.50
2022-07-30T06:52:30.201Z,31.70
2022-07-30T06:54:58.358Z,31.60
2022-07-30T06:57:41.923Z,31.70
2022-07-30T07:00:21.661Z,32.10
2022-07-30T07:02:51.412Z,32.80
2022-07-30T07:05:29.048Z,32.60
2022-07-30T07:08:00.005Z,32.60
2022-07-30T07:10:34.252Z,32.80
2022-07-30T07:13:27.518Z,33.00
2022-07-30T07:15:56.417Z,33.50
2022-07-30T07:18:26.513Z,33.60
2022-07-30T07:21:00.140Z,33.80
2022-07-30T07:23:41.569Z,33.50
2022-07-30T07:26:16.872Z,33.90
2022-07-30T07:28:45.394Z,34.10
2022-07-30T07:32:05.974Z,34.20
2022-07-30T07:34:01.764Z,35.00
2022-07-30T07:36:29.996Z,35.60
2022-07-30T07:38:59.647Z,36.00
2022-07-30T07:41:28.072Z,35.90
2022-07-30T07:43:56.449Z,35.80
2022-07-30T07:46:34.451Z,36.10
2022-07-30T07:49:04.604Z,35.30
2022-07-30T07:51:47.418Z,34.10
2022-07-30T07:54:23.011Z,33.30
2022-07-30T07:56:56.682Z,32.60
2022-07-30T07:59:40.114Z,31.40
2022-07-30T08:02:24.756Z,30.90
2022-07-30T08:05:05.398Z,30.90
2022-07-30T08:07:43.827Z,31.00
2022-07-30T08:10:39.530Z,31.90
2022-07-30T08:13:52.100Z,32.60
2022-07-30T08:16:32.938Z,33.40
2022-07-30T08:19:19.611Z,34.40
2022-07-30T08:22:12.074Z,34.60
2022-07-30T08:24:41.375Z,34.80
2022-07-30T08:27:10.920Z,35.00
2022-07-30T08:29:39.222Z,35.90
2022-07-30T08:32:07.951Z,36.40
2022-07-30T08:34:39.147Z,37.20
2022-07-30T08:37:10.081Z,37.30
2022-07-30T08:39:38.634Z,38.10
2022-07-30T08:42:07.409Z,38.30
2022-07-30T08:44:37.653Z,39.20
2022-07-30T08:47:08.895Z,39.40
2022-07-30T08:50:01.421Z,40.20
2022-07-30T08:52:32.999Z,41.30
2022-07-30T08:55:02.206Z,42.10
2022-07-30T08:57:31.479Z,43.10
2022-07-30T09:00:02.188Z,43.10
2022-07-30T09:02:33.164Z,42.80
2022-07-30T09:05:05.671Z,42.70
2022-07-30T09:07:35.205Z,43.10
2022-07-30T09:10:05.656Z,43.10
2022-07-30T09:12:40.694Z,42.00
2022-07-30T09:15:11.939Z,42.30
2022-07-30T09:18:01.949Z,42.00
2022-07-30T09:20:34.737Z,42.60
2022-07-30T09:23:07.782Z,41.70
2022-07-30T09:25:54.310Z,40.90
2022-07-30T09:29:18.692Z,40.40
2022-07-30T09:32:07.208Z,39.80
2022-07-30T09:35:13.762Z,39.90
2022-07-30T09:38:08.966Z,39.60
2022-07-30T09:40:58.012Z,38.90
2022-07-30T09:43:49.380Z,39.90
2022-07-30T09:46:45.392Z,40.60
2022-07-30T09:49:18.498Z,40.00
2022-07-30T09:51:59.439Z,40.10
2022-07-30T09:54:51.870Z,39.80
2022-07-30T09:57:26.576Z,40.10
2022-07-30T10:00:01.313Z,41.40
2022-07-30T10:02:33.444Z,42.50
2022-07-30T10:05:19.270Z,43.10
2022-07-30T10:07:53.249Z,43.10
2022-07-30T10:10:25.258Z,42.20
2022-07-30T10:12:57.974Z,41.90
2022-07-30T10:15:29.805Z,42.40
2022-07-30T10:17:59.321Z,43.20
2022-07-30T10:21:05.612Z,42.10
2022-07-30T10:23:53.900Z,40.40
2022-07-30T10:26:42.319Z,41.60
2022-07-30T10:29:34.071Z,42.50
2022-07-30T10:32:03.011Z,42.60
2022-07-30T10:34:34.539Z,42.90
2022-07-30T10:37:08.077Z,42.80
2022-07-30T10:39:40.122Z,42.10
2022-07-30T10:42:28.933Z,41.60
2022-07-30T10:45:17.612Z,41.30
2022-07-30T10:47:49.351Z,40.40
2022-07-30T10:50:22.133Z,40.40
2022-07-30T10:52:54.324Z,40.70
2022-07-30T10:55:37.024Z,40.90
2022-07-30T10:58:08.972Z,40.70
2022-07-30T11:00:53.463Z,41.80
2022-07-30T11:03:41.491Z,42.70
2022-07-30T11:06:29.229Z,42.60
2022-07-30T11:08:58.858Z,41.80
2022-07-30T11:12:02.172Z,42.00
2022-07-30T11:14:58.356Z,42.50
2022-07-30T11:17:59.553Z,42.10
2022-07-30T11:20:28.019Z,41.70
2022-07-30T11:23:09.137Z,40.80
2022-07-30T11:25:51.414Z,40.10
2022-07-30T11:28:37.679Z,39.80
2022-07-30T11:31:21.369Z,40.30
2022-07-30T11:34:27.140Z,39.30
2022-07-30T11:37:19.040Z,38.90
2022-07-30T11:40:11.113Z,39.10
2022-07-30T11:42:42.570Z,40.00
2022-07-30T11:45:30.874Z,40.70
2022-07-30T11:48:03.678Z,41.70
2022-07-30T11:50:35.162Z,42.10
2022-07-30T11:53:05.295Z,41.70
2022-07-30T11:55:35.908Z,41.60
2022-07-30T11:58:07.379Z,41.10
2022-07-30T12:00:37.697Z,40.30
2022-07-30T12:03:11.414Z,39.80
2022-07-30T12:05:39.850Z,39.30
2022-07-30T12:08:08.472Z,39.60
2022-07-30T12:10:46.045Z,40.10
2022-07-30T12:13:17.922Z,40.90
2022-07-30T12:15:48.488Z,41.60
2022-07-30T12:18:26.666Z,42.20
2022-07-30T12:20:57.680Z,42.90
2022-07-30T12:23:28.078Z,43.40
2022-07-30T12:25:56.995Z,43.60
2022-07-30T12:28:29.291Z,44.20
2022-07-30T12:30:58.788Z,44.30
2022-07-30T12:33:27.236Z,43.70
2022-07-30T12:35:57.221Z,43.00
2022-07-30T12:38:27.753Z,42.40
2022-07-30T12:40:58.616Z,42.80
2022-07-30T12:43:50.735Z,43.60
2022-07-30T12:46:20.827Z,43.90
2022-07-30T12:49:11.543Z,43.20
2022-07-30T12:52:00.224Z,42.80
2022-07-30T12:54:29.252Z,42.90
2022-07-30T12:57:00.650Z,43.30
2022-07-30T12:59:31.187Z,43.80
2022-07-30T13:02:00.970Z,43.80
2022-07-30T13:04:29.548Z,42.30
2022-07-30T13:07:08.312Z,42.40
2022-07-30T13:09:36.698Z,42.30
2022-07-30T13:12:05.634Z,41.20
2022-07-30T13:14:35.170Z,40.80
2022-07-30T13:17:07.201Z,40.50
2022-07-30T13:19:35.397Z,41.40
2022-07-30T13:22:03.622Z,41.80
2022-07-30T13:24:34.080Z,42.00
2022-07-30T13:27:02.892Z,41.80
2022-07-30T13:29:31.432Z,42.00
2022-07-30T13:32:01.896Z,42.10
2022-07-30T13:34:30.048Z,42.30
2022-07-30T13:36:58.158Z,42.40
2022-07-30T13:39:26.213Z,42.40
2022-07-30T13:41:54.463Z,42.20
2022-07-30T13:44:22.554Z,42.30
2022-07-30T13:46:50.702Z,41.70
2022-07-30T13:49:20.522Z,41.30
2022-07-30T13:51:48.704Z,41.40
2022-07-30T13:54:17.335Z,41.00
2022-07-30T13:56:45.466Z,41.10
2022-07-30T13:59:13.719Z,40.60
2022-07-30T14:01:41.954Z,39.90
2022-07-30T14:04:10.184Z,40.20
2022-07-30T14:06:40.328Z,40.70
2022-07-30T14:09:08.478Z,41.70
2022-07-30T14:11:36.741Z,42.10
2022-07-30T14:14:04.947Z,41.50
2022-07-30T14:16:45.063Z,41.00
2022-07-30T14:19:24.196Z,41.20
2022-07-30T14:21:54.635Z,40.80
2022-07-30T14:24:23.261Z,39.70
2022-07-30T14:26:57.293Z,39.20
2022-07-30T14:29:26.166Z,39.50
2022-07-30T14:31:54.808Z,39.60
2022-07-30T14:34:22.968Z,39.50
2022-07-30T14:36:51.179Z,39.50
2022-07-30T14:39:20.994Z,39.90
2022-07-30T14:41:55.483Z,39.80
2022-07-30T14:44:24.367Z,39.30
2022-07-30T14:46:53.187Z,39.00
2022-07-30T14:49:22.763Z,38.80
2022-07-30T14:51:51.083Z,39.20
2022-07-30T14:54:20.700Z,39.50
2022-07-30T14:56:49.003Z,39.20
2022-07-30T14:59:17.228Z,39.40
2022-07-30T15:01:47.147Z,39.20
2022-07-30T15:04:15.535Z,38.90
2022-07-30T15:06:43.699Z,38.90
2022-07-30T15:09:12.138Z,38.80
2022-07-30T15:12:07.825Z,38.90
2022-07-30T15:14:30.023Z,38.90
2022-07-30T15:17:03.894Z,38.90
2022-07-30T15:19:32.701Z,38.20
2022-07-30T15:22:02.736Z,37.70
2022-07-30T15:24:32.171Z,37.70
2022-07-30T15:27:01.637Z,37.40
2022-07-30T15:29:30.830Z,37.00
2022-07-30T15:32:01.006Z,36.50
2022-07-30T15:34:33.988Z,35.90
2022-07-30T15:37:02.673Z,35.20
2022-07-30T15:39:32.779Z,34.90
2022-07-30T15:42:02.936Z,34.50
2022-07-30T15:44:31.390Z,34.00
2022-07-30T15:46:59.476Z,33.90
2022-07-30T15:49:28.010Z,34.00
2022-07-30T15:51:57.372Z,34.50
2022-07-30T15:54:25.683Z,35.10
2022-07-30T15:57:01.267Z,35.80
2022-07-30T15:59:31.636Z,36.10
2022-07-30T16:02:00.186Z,35.80
2022-07-30T16:04:31.228Z,35.70
2022-07-30T16:07:00.769Z,35.80
2022-07-30T16:09:29.013Z,36.20
2022-07-30T16:11:59.712Z,36.40
2022-07-30T16:14:28.378Z,36.30
2022-07-30T16:16:57.992Z,36.20
2022-07-30T16:19:26.173Z,35.70
2022-07-30T16:21:55.172Z,35.30
2022-07-30T16:24:23.365Z,35.00
2022-07-30T16:26:51.602Z,34.50
2022-07-30T16:29:19.792Z,34.30
2022-07-30T16:31:48.053Z,34.10
2022-07-30T16:34:22.995Z,33.90
2022-07-30T16:36:55.131Z,34.10
2022-07-30T16:39:23.405Z,34.40
2022-07-30T16:41:51.514Z,34.30
2022-07-30T16:44:19.838Z,34.20
2022-07-30T16:46:48.423Z,33.90
2022-07-30T16:49:18.233Z,33.60
2022-07-30T16:51:46.520Z,33.60
2022-07-30T16:54:14.630Z,33.50
2022-07-30T16:56:42.772Z,33.70
2022-07-30T16:59:13.804Z,33.90
2022-07-30T17:01:42.161Z,34.00
2022-07-30T17:04:10.361Z,34.00
2022-07-30T17:06:41.081Z,33.80
2022-07-30T17:09:09.414Z,33.50
2022-07-30T17:11:51.968Z,32.80
2022-07-30T17:14:31.791Z,32.40
2022-07-30T17:17:00.085Z,31.80
2022-07-30T17:19:28.599Z,31.40
2022-07-30T17:21:58.190Z,31.10
2022-07-30T17:24:26.465Z,30.90
2022-07-30T17:26:54.566Z,30.60
2022-07-30T17:29:22.692Z,30.30
2022-07-30T17:31:50.900Z,30.10
2022-07-30T17:34:20.302Z,29.90
2022-07-30T17:36:51.893Z,29.70
2022-07-30T17:40:27.871Z,29.50
2022-07-30T17:42:12.631Z,29.40
2022-07-30T17:44:41.810Z,29.20
2022-07-30T17:47:15.065Z,29.10
2022-07-30T17:49:44.928Z,29.00
2022-07-30T17:52:13.226Z,28.90
2022-07-30T17:54:42.738Z,28.80
2022-07-30T17:57:10.847Z,28.60
2022-07-30T17:59:39.072Z,28.40
2022-07-30T18:02:07.441Z,28.30
2022-07-30T18:04:35.954Z,28.10
2022-07-30T18:07:04.960Z,28.00
2022-07-30T18:09:39.260Z,27.80
2022-07-30T18:12:10.679Z,27.60
2022-07-30T18:14:38.847Z,27.50
2022-07-30T18:17:11.164Z,27.30
2022-07-30T18:19:42.342Z,27.10
2022-07-30T18:22:10.548Z,26.90
2022-07-30T18:24:43.703Z,26.80
2022-07-30T18:27:13.738Z,26.70
2022-07-30T18:29:42.293Z,26.50
2022-07-30T18:32:10.676Z,26.40
2022-07-30T18:34:38.957Z,26.30
2022-07-30T18:37:07.187Z,26.20
2022-07-30T18:39:35.339Z,26.10
2022-07-30T18:42:04.533Z,26.00
2022-07-30T18:44:34.391Z,25.90
2022-07-30T18:47:02.763Z,25.70
2022-07-30T18:49:38.464Z,25.60
2022-07-30T18:52:08.216Z,25.50
2022-07-30T18:54:37.129Z,25.40
2022-07-30T18:57:06.002Z,25.30
2022-07-30T18:59:35.933Z,25.20
2022-07-30T19:02:07.015Z,25.10
2022-07-30T19:04:35.514Z,25.00
2022-07-30T19:07:03.744Z,24.90
2022-07-30T19:09:32.013Z,24.80
2022-07-30T19:12:00.545Z,24.70
2022-07-30T19:14:29.254Z,24.60
2022-07-30T19:16:59.457Z,24.50
2022-07-30T19:19:28.343Z,24.40
2022-07-30T19:21:56.917Z,24.20
2022-07-30T19:24:27.704Z,24.20
2022-07-30T19:26:56.317Z,24.00
2022-07-30T19:29:24.363Z,23.90
2022-07-30T19:31:52.588Z,23.80
2022-07-30T19:34:22.140Z,23.70
2022-07-30T19:36:50.370Z,23.60
2022-07-30T19:39:21.890Z,23.40
2022-07-30T19:41:50.801Z,23.30
2022-07-30T19:44:19.674Z,23.20
2022-07-30T19:46:48.746Z,23.10
2022-07-30T19:49:17.324Z,23.00
2022-07-30T19:52:17.517Z,22.90
2022-07-30T19:54:37.275Z,22.80
2022-07-30T19:57:05.898Z,22.70
2022-07-30T19:59:45.312Z,22.60
2022-07-30T20:02:22.741Z,22.50
2022-07-30T20:04:51.055Z,22.40
2022-07-30T20:07:20.907Z,22.30
2022-07-30T20:09:49.201Z,22.30
2022-07-30T20:12:17.646Z,22.20
2022-07-30T20:14:46.219Z,22.10
2022-07-30T20:17:14.598Z,22.00
2022-07-30T20:19:47.627Z,21.90
2022-07-30T20:22:16.968Z,21.80
2022-07-30T20:24:48.473Z,21.80
2022-07-30T20:27:38.324Z,21.80
2022-07-30T20:30:06.575Z,21.80
2022-07-30T20:32:35.379Z,21.80
2022-07-30T20:35:04.800Z,21.80
2022-07-30T20:37:33.505Z,21.70
2022-07-30T20:40:23.410Z,21.60
2022-07-30T20:42:53.120Z,21.50
2022-07-30T20:45:24.889Z,21.40
2022-07-30T20:47:56.574Z,21.30
2022-07-30T20:50:30.917Z,21.30
2022-07-30T20:53:00.158Z,21.30
2022-07-30T20:55:29.894Z,21.20
2022-07-30T20:58:07.952Z,21.20
2022-07-30T21:00:41.958Z,21.10
2022-07-30T21:03:17.700Z,21.00
2022-07-30T21:05:46.763Z,20.90
2022-07-30T21:08:15.732Z,21.00
2022-07-30T21:10:46.849Z,20.90
2022-07-30T21:13:15.178Z,20.90
2022-07-30T21:15:45.298Z,20.90
2022-07-30T21:18:30.647Z,20.80
2022-07-30T21:20:58.937Z,20.80
2022-07-30T21:23:29.051Z,20.80
2022-07-30T21:26:02.043Z,20.80
2022-07-30T21:28:35.468Z,20.70
2022-07-30T21:31:07.027Z,20.70
2022-07-30T21:33:36.574Z,20.70
2022-07-30T21:36:10.248Z,20.60
2022-07-30T21:38:41.861Z,20.40
2022-07-30T21:41:14.100Z,20.40
2022-07-30T21:43:44.187Z,20.40
2022-07-30T21:46:12.568Z,20.40
2022-07-30T21:48:41.125Z,20.40
2022-07-30T21:51:10.362Z,20.40
2022-07-30T21:53:45.191Z,20.30
2022-07-30T21:56:16.520Z,20.10
2022-07-30T21:58:45.465Z,20.10
2022-07-30T22:01:21.718Z,20.00
2022-07-30T22:04:03.217Z,20.00
2022-07-30T22:06:36.538Z,19.90
2022-07-30T22:09:18.915Z,19.90
2022-07-30T22:11:57.195Z,19.80
2022-07-30T22:14:29.962Z,19.80
2022-07-30T22:16:59.670Z,19.80
2022-07-30T22:19:27.855Z,19.90
2022-07-30T22:21:56.068Z,20.00
2022-07-30T22:24:28.803Z,20.00
2022-07-30T22:27:01.185Z,20.10
2022-07-30T22:29:34.038Z,20.00
2022-07-30T22:32:04.669Z,19.70
2022-07-30T22:34:33.392Z,19.60
2022-07-30T22:37:01.984Z,19.50
2022-07-30T22:39:32.150Z,19.30
2022-07-30T22:42:19.839Z,19.10
2022-07-30T22:44:48.360Z,18.90
2022-07-30T22:47:21.110Z,18.80
2022-07-30T22:50:06.039Z,18.70
2022-07-30T22:52:38.981Z,18.60
2022-07-30T22:55:10.346Z,18.60
2022-07-30T22:57:41.359Z,18.50
2022-07-30T23:00:13.672Z,18.50
2022-07-30T23:02:43.097Z,18.60
2022-07-30T23:05:12.257Z,18.60
2022-07-30T23:07:40.717Z,18.70
2022-07-30T23:10:17.930Z,18.70
2022-07-30T23:12:51.388Z,18.80
2022-07-30T23:15:20.339Z,18.80
2022-07-30T23:17:48.744Z,18.90
2022-07-30T23:20:20.324Z,19.00
2022-07-30T23:22:48.612Z,18.90
2022-07-30T23:25:16.862Z,18.70
2022-07-30T23:27:46.738Z,18.70
2022-07-30T23:30:16.944Z,18.70
2022-07-30T23:32:45.021Z,18.80
2022-07-30T23:35:13.456Z,18.80
2022-07-30T23:37:48.599Z,18.90
2022-07-30T23:40:18.922Z,19.00
2022-07-30T23:42:47.457Z,19.10
2022-07-30T23:45:17.149Z,19.20
2022-07-30T23:48:01.434Z,19.30
2022-07-30T23:50:32.799Z,19.30
2022-07-30T23:53:01.353Z,19.40
2022-07-30T23:55:30.983Z,19.40
2022-07-30T23:58:00.048Z,19.40
